Terminal Aerodrome Forecast
Issued by NWS

Home | Current Version | Previous Version | Text Only | Print | Product List | Glossary On
Versions: 1 2 3 4 5 6 7 8 9 10 11 12
000
FTUS46 KSGX 301700
TAFONT
TAF
KONT 301720Z 3018/3124 VRB04KT P6SM VCSH SCT060 OVC080
     FM301900 25006KT P6SM VCSH OVC060
     FM310200 VRB04KT P6SM VCSH SCT020 OVC050
      TEMPO 3110/3114 5SM -SHRA BKN020
     FM311600 VRB03KT P6SM BKN050
     FM311800 02010KT P6SM SCT050=

USA.gov is the U.S. government's official web portal to all federal, state and local government web resources and services.